createdAt,value
2023-03-17T00:01:42.504Z,10.01
2023-03-17T00:04:13.242Z,9.83
2023-03-17T00:06:41.635Z,9.98
2023-03-17T00:09:17.200Z,9.88
2023-03-17T00:11:45.482Z,9.93
2023-03-17T00:14:13.026Z,10.00
2023-03-17T00:16:45.359Z,9.92
2023-03-17T00:19:17.498Z,9.90
2023-03-17T00:21:47.217Z,9.85
2023-03-17T00:24:15.459Z,9.63
2023-03-17T00:26:43.478Z,9.52
2023-03-17T00:29:11.124Z,9.50
2023-03-17T00:31:40.055Z,9.45
2023-03-17T00:34:12.378Z,9.37
2023-03-17T00:36:41.127Z,9.25
2023-03-17T00:41:40.685Z,9.71
2023-03-17T00:44:08.355Z,9.71
2023-03-17T00:46:38.306Z,9.33
2023-03-17T00:49:26.468Z,9.07
2023-03-17T00:51:54.430Z,9.26
2023-03-17T00:54:22.927Z,9.20
2023-03-17T00:56:52.266Z,9.43
2023-03-17T00:59:46.303Z,9.47
2023-03-17T01:02:32.631Z,9.29
2023-03-17T01:05:06.298Z,9.23
2023-03-17T01:07:35.270Z,9.19
2023-03-17T01:10:03.219Z,9.10
2023-03-17T01:12:30.712Z,9.24
2023-03-17T01:14:58.377Z,9.10
2023-03-17T01:17:25.922Z,8.99
2023-03-17T01:19:53.940Z,8.93
2023-03-17T01:22:21.550Z,8.89
2023-03-17T01:24:49.170Z,8.88
2023-03-17T01:27:18.341Z,8.84
2023-03-17T01:29:45.961Z,8.85
2023-03-17T01:32:13.611Z,9.09
2023-03-17T01:34:41.242Z,9.02
2023-03-17T01:37:10.103Z,8.84
2023-03-17T01:39:37.652Z,8.77
2023-03-17T01:42:06.122Z,8.90
2023-03-17T01:44:33.692Z,8.81
2023-03-17T01:47:01.332Z,8.75
2023-03-17T01:49:30.929Z,8.97
2023-03-17T01:52:10.821Z,8.92
2023-03-17T01:54:48.642Z,8.69
2023-03-17T01:57:28.973Z,8.75
2023-03-17T02:00:00.194Z,8.65
2023-03-17T02:02:32.641Z,8.58
2023-03-17T02:05:00.383Z,8.57
2023-03-17T02:07:28.442Z,8.62
2023-03-17T02:09:57.202Z,8.62
2023-03-17T02:12:25.312Z,8.55
2023-03-17T02:14:52.973Z,8.53
2023-03-17T02:17:22.588Z,8.46
2023-03-17T02:19:50.617Z,8.21
2023-03-17T02:22:18.600Z,8.26
2023-03-17T02:24:49.119Z,8.21
2023-03-17T02:27:16.701Z,8.09
2023-03-17T02:29:46.553Z,8.11
2023-03-17T02:32:15.091Z,8.35
2023-03-17T02:34:42.732Z,8.20
2023-03-17T02:37:10.637Z,8.21
2023-03-17T02:39:38.173Z,8.28
2023-03-17T02:42:06.535Z,8.17
2023-03-17T02:44:35.216Z,8.18
2023-03-17T02:47:03.534Z,8.15
2023-03-17T02:49:31.756Z,8.23
2023-03-17T02:51:59.255Z,8.20
2023-03-17T02:54:26.958Z,8.32
2023-03-17T02:56:54.476Z,8.00
2023-03-17T02:59:22.449Z,8.09
2023-03-17T03:01:50.988Z,8.18
2023-03-17T03:04:19.339Z,8.22
2023-03-17T03:06:47.811Z,8.12
2023-03-17T03:09:15.587Z,8.08
2023-03-17T03:11:43.232Z,8.08
2023-03-17T03:14:11.307Z,7.96
2023-03-17T03:16:39.089Z,8.00
2023-03-17T03:19:08.108Z,8.04
2023-03-17T03:21:37.018Z,7.93
2023-03-17T03:24:05.656Z,7.92
2023-03-17T03:26:33.257Z,8.11
2023-03-17T03:29:01.576Z,8.12
2023-03-17T03:31:29.232Z,7.91
2023-03-17T03:33:56.908Z,7.82
2023-03-17T03:36:25.640Z,7.88
2023-03-17T03:38:53.202Z,7.74
2023-03-17T03:41:20.857Z,7.87
2023-03-17T03:43:48.334Z,7.85
2023-03-17T03:46:15.991Z,7.73
2023-03-17T03:48:43.542Z,7.79
2023-03-17T03:51:11.161Z,7.88
2023-03-17T03:53:38.708Z,7.99
2023-03-17T03:56:06.612Z,7.70
2023-03-17T03:58:34.165Z,7.51
2023-03-17T04:01:05.470Z,7.36
2023-03-17T04:03:33.260Z,7.47
2023-03-17T04:06:00.878Z,7.61
2023-03-17T04:08:28.531Z,7.66
2023-03-17T04:10:56.075Z,7.59
2023-03-17T04:13:23.805Z,7.59
2023-03-17T04:15:51.900Z,7.69
2023-03-17T04:18:19.690Z,7.66
2023-03-17T04:20:47.610Z,7.68
2023-03-17T04:23:15.214Z,7.62
2023-03-17T04:25:43.001Z,7.77
2023-03-17T04:28:11.054Z,7.50
2023-03-17T04:30:38.706Z,7.49
2023-03-17T04:33:06.311Z,7.37
2023-03-17T04:35:33.937Z,7.53
2023-03-17T04:38:01.812Z,7.47
2023-03-17T04:40:29.519Z,7.59
2023-03-17T04:42:57.231Z,7.37
2023-03-17T04:45:25.686Z,7.37
2023-03-17T04:47:53.281Z,7.45
2023-03-17T04:50:21.159Z,7.44
2023-03-17T04:52:48.860Z,7.43
2023-03-17T04:55:16.731Z,7.22
2023-03-17T04:57:44.515Z,7.09
2023-03-17T05:00:12.878Z,6.98
2023-03-17T05:02:41.377Z,7.34
2023-03-17T05:05:08.995Z,7.34
2023-03-17T05:07:36.711Z,7.18
2023-03-17T05:10:05.705Z,7.11
2023-03-17T05:12:33.295Z,7.38
2023-03-17T05:15:00.880Z,7.22
2023-03-17T05:17:28.441Z,7.21
2023-03-17T05:19:55.997Z,7.42
2023-03-17T05:22:23.677Z,7.41
2023-03-17T05:24:51.282Z,7.22
2023-03-17T05:27:18.834Z,7.25
2023-03-17T05:29:46.394Z,7.32
2023-03-17T05:32:14.051Z,7.56
2023-03-17T05:34:41.661Z,7.43
2023-03-17T05:37:10.755Z,7.38
2023-03-17T05:39:38.644Z,7.55
2023-03-17T05:42:06.460Z,7.48
2023-03-17T05:44:34.391Z,7.54
2023-03-17T05:47:02.132Z,7.51
2023-03-17T05:49:29.845Z,7.65
2023-03-17T05:51:57.542Z,7.73
2023-03-17T05:54:25.145Z,7.65
2023-03-17T05:56:52.762Z,7.76
2023-03-17T05:59:20.854Z,7.88
2023-03-17T06:01:48.364Z,7.81
2023-03-17T06:04:16.205Z,7.99
2023-03-17T06:06:43.947Z,8.03
2023-03-17T06:09:11.542Z,8.10
2023-03-17T06:11:39.149Z,8.12
2023-03-17T06:14:07.471Z,8.19
2023-03-17T06:16:35.029Z,8.29
2023-03-17T06:19:02.724Z,8.37
2023-03-17T06:21:30.253Z,8.35
2023-03-17T06:23:57.806Z,8.33
2023-03-17T06:26:25.579Z,8.46
2023-03-17T06:28:53.166Z,8.47
2023-03-17T06:31:21.092Z,8.64
2023-03-17T06:33:48.697Z,8.57
2023-03-17T06:36:16.231Z,8.68
2023-03-17T06:38:44.067Z,8.73
2023-03-17T06:41:11.858Z,8.54
2023-03-17T06:43:39.511Z,8.55
2023-03-17T06:46:07.683Z,8.51
2023-03-17T06:48:35.519Z,8.63
2023-03-17T06:51:03.248Z,8.84
2023-03-17T06:53:31.590Z,8.96
2023-03-17T06:55:59.343Z,9.08
2023-03-17T06:58:27.090Z,9.18
2023-03-17T07:00:54.749Z,9.17
2023-03-17T07:03:24.222Z,9.36
2023-03-17T07:05:52.417Z,9.36
2023-03-17T07:08:19.903Z,9.52
2023-03-17T07:10:47.882Z,9.68
2023-03-17T07:13:15.501Z,9.76
2023-03-17T07:15:45.235Z,9.78
2023-03-17T07:18:13.750Z,9.86
2023-03-17T07:20:41.759Z,9.76
2023-03-17T07:23:16.611Z,9.84
2023-03-17T07:25:46.107Z,9.92
2023-03-17T07:28:14.050Z,10.02
2023-03-17T07:30:44.260Z,10.17
2023-03-17T07:33:11.920Z,10.30
2023-03-17T07:35:39.693Z,10.48
2023-03-17T07:38:07.325Z,10.75
2023-03-17T07:40:35.526Z,10.83
2023-03-17T07:43:05.129Z,10.98
2023-03-17T07:45:33.602Z,11.17
2023-03-17T07:48:01.562Z,11.25
2023-03-17T07:50:29.272Z,11.40
2023-03-17T07:52:56.857Z,11.53
2023-03-17T07:55:24.431Z,11.73
2023-03-17T07:57:53.321Z,11.91
2023-03-17T08:00:22.227Z,12.05
2023-03-17T08:03:06.992Z,12.11
2023-03-17T08:05:36.869Z,12.34
2023-03-17T08:08:06.650Z,12.41
2023-03-17T08:10:34.883Z,12.56
2023-03-17T08:13:02.741Z,12.60
2023-03-17T08:15:31.469Z,12.58
2023-03-17T08:17:59.176Z,12.75
2023-03-17T08:20:26.833Z,12.83
2023-03-17T08:22:54.476Z,13.06
2023-03-17T08:25:23.007Z,12.93
2023-03-17T08:27:50.897Z,12.95
2023-03-17T08:30:18.557Z,12.96
2023-03-17T08:32:46.642Z,13.01
2023-03-17T08:35:16.271Z,13.25
2023-03-17T08:37:44.064Z,13.39
2023-03-17T08:40:13.804Z,13.43
2023-03-17T08:42:41.470Z,13.73
2023-03-17T08:45:10.231Z,13.72
2023-03-17T08:47:38.539Z,13.73
2023-03-17T08:50:08.931Z,13.76
2023-03-17T08:52:36.731Z,13.99
2023-03-17T08:55:04.441Z,13.98
2023-03-17T08:57:32.231Z,14.01
2023-03-17T08:59:59.742Z,14.01
2023-03-17T09:02:28.577Z,14.18
2023-03-17T09:04:56.833Z,14.14
2023-03-17T09:07:24.393Z,14.10
2023-03-17T09:09:51.897Z,14.13
2023-03-17T09:12:19.414Z,14.10
2023-03-17T09:14:48.113Z,13.90
2023-03-17T09:17:16.902Z,13.93
2023-03-17T09:19:44.855Z,13.99
2023-03-17T09:22:14.304Z,13.74
2023-03-17T09:24:42.170Z,13.72
2023-03-17T09:27:09.682Z,13.77
2023-03-17T09:29:37.192Z,13.99
2023-03-17T09:32:04.939Z,14.27
2023-03-17T09:34:32.984Z,14.16
2023-03-17T09:37:00.511Z,14.28
2023-03-17T09:39:28.112Z,14.27
2023-03-17T09:42:05.172Z,14.19
2023-03-17T09:44:32.761Z,14.22
2023-03-17T09:47:04.411Z,14.10
2023-03-17T09:49:42.874Z,14.23
2023-03-17T09:52:15.929Z,14.46
2023-03-17T09:54:45.969Z,14.58
2023-03-17T09:57:18.322Z,14.60
2023-03-17T09:59:48.360Z,14.29
2023-03-17T10:02:22.976Z,14.71
2023-03-17T10:04:50.940Z,15.05
2023-03-17T10:07:22.690Z,14.60
2023-03-17T10:10:01.728Z,14.81
2023-03-17T10:12:52.339Z,15.43
2023-03-17T10:15:42.411Z,15.45
2023-03-17T10:18:14.375Z,15.91
2023-03-17T10:20:54.634Z,16.42
2023-03-17T10:23:25.151Z,16.91
2023-03-17T10:25:53.072Z,17.13
2023-03-17T10:28:31.910Z,16.21
2023-03-17T10:31:12.774Z,16.18
2023-03-17T10:33:40.366Z,16.63
2023-03-17T10:36:11.014Z,16.36
2023-03-17T10:38:38.632Z,16.74
2023-03-17T10:41:07.932Z,16.97
2023-03-17T10:43:42.330Z,16.84
2023-03-17T10:46:18.467Z,17.18
2023-03-17T10:48:52.551Z,16.89
2023-03-17T10:51:46.562Z,16.87
2023-03-17T10:54:18.291Z,16.72
2023-03-17T10:56:49.780Z,17.29
2023-03-17T10:59:25.975Z,17.45
2023-03-17T11:01:54.236Z,17.60
2023-03-17T11:04:44.642Z,17.85
2023-03-17T11:07:20.653Z,17.95
2023-03-17T11:09:50.881Z,16.88
2023-03-17T11:12:24.175Z,16.86
2023-03-17T11:14:56.375Z,16.93
2023-03-17T11:17:41.650Z,17.32
2023-03-17T11:20:27.894Z,18.02
2023-03-17T11:22:58.547Z,17.89
2023-03-17T11:25:27.529Z,17.46
2023-03-17T11:28:12.307Z,17.66
2023-03-17T11:30:55.905Z,18.79
2023-03-17T11:33:41.846Z,18.64
2023-03-17T11:36:34.605Z,18.26
2023-03-17T11:39:20.957Z,18.45
2023-03-17T11:41:48.467Z,17.83
2023-03-17T11:44:30.108Z,18.01
2023-03-17T11:47:00.645Z,18.74
2023-03-17T11:49:37.114Z,19.91
2023-03-17T11:52:11.248Z,21.05
2023-03-17T11:54:44.879Z,21.41
2023-03-17T11:57:19.983Z,21.28
2023-03-17T11:59:54.693Z,21.86
2023-03-17T12:02:41.176Z,22.01
2023-03-17T12:05:15.583Z,22.42
2023-03-17T12:07:53.379Z,22.19
2023-03-17T12:10:40.760Z,22.41
2023-03-17T12:13:12.819Z,21.96
2023-03-17T12:15:43.738Z,20.62
2023-03-17T12:18:33.083Z,21.19
2023-03-17T12:21:05.003Z,22.22
2023-03-17T12:23:32.839Z,22.49
2023-03-17T12:26:14.403Z,23.13
2023-03-17T12:29:03.050Z,23.41
2023-03-17T12:31:32.571Z,23.29
2023-03-17T12:34:21.097Z,24.66
2023-03-17T12:36:49.610Z,25.25
2023-03-17T12:39:28.663Z,23.41
2023-03-17T12:41:59.910Z,23.31
2023-03-17T12:44:27.508Z,23.83
2023-03-17T12:46:55.122Z,25.26
2023-03-17T12:49:28.841Z,26.61
2023-03-17T12:52:08.103Z,26.28
2023-03-17T12:54:37.460Z,26.89
2023-03-17T12:57:11.151Z,26.69
2023-03-17T12:59:42.112Z,27.80
2023-03-17T13:02:18.624Z,28.22
2023-03-17T13:04:53.761Z,29.12
2023-03-17T13:07:27.147Z,29.28
2023-03-17T13:09:54.697Z,29.61
2023-03-17T13:12:40.383Z,30.46
2023-03-17T13:15:23.069Z,29.26
2023-03-17T13:17:50.919Z,29.49
2023-03-17T13:20:35.974Z,29.59
2023-03-17T13:23:12.506Z,28.38
2023-03-17T13:25:41.853Z,27.50
2023-03-17T13:28:10.481Z,28.22
2023-03-17T13:30:38.424Z,28.09
2023-03-17T13:33:10.006Z,28.90
2023-03-17T13:35:53.909Z,29.73
2023-03-17T13:38:40.395Z,30.59
2023-03-17T13:41:20.131Z,30.90
2023-03-17T13:44:05.664Z,29.72
2023-03-17T13:46:34.370Z,29.72
2023-03-17T13:49:21.625Z,30.16
2023-03-17T13:52:15.818Z,30.51
2023-03-17T13:55:22.388Z,29.67
2023-03-17T13:58:16.178Z,29.77
2023-03-17T14:00:45.432Z,30.55
2023-03-17T14:03:32.874Z,30.59
2023-03-17T14:06:03.509Z,31.31
2023-03-17T14:08:38.776Z,29.84
2023-03-17T14:11:09.217Z,27.99
2023-03-17T14:13:56.543Z,29.87
2023-03-17T14:16:32.396Z,30.37
2023-03-17T14:19:08.388Z,30.33
2023-03-17T14:21:36.740Z,30.74
2023-03-17T14:24:18.134Z,28.92
2023-03-17T14:26:46.058Z,28.05
2023-03-17T14:29:15.317Z,27.34
2023-03-17T14:31:47.185Z,25.48
2023-03-17T14:34:15.420Z,25.75
2023-03-17T14:36:43.099Z,26.47
2023-03-17T14:39:22.077Z,26.14
2023-03-17T14:42:09.891Z,25.87
2023-03-17T14:44:38.668Z,24.92
2023-03-17T14:47:13.107Z,24.51
2023-03-17T14:49:40.825Z,24.65
2023-03-17T14:52:17.232Z,24.79
2023-03-17T14:54:44.903Z,24.88
2023-03-17T14:57:15.936Z,23.46
2023-03-17T14:59:44.488Z,23.11
2023-03-17T15:02:21.001Z,22.30
2023-03-17T15:05:11.953Z,23.20
2023-03-17T15:07:42.879Z,22.60
2023-03-17T15:10:15.958Z,22.29
2023-03-17T15:12:46.454Z,21.28
2023-03-17T15:15:26.328Z,20.71
2023-03-17T15:17:58.146Z,20.88
2023-03-17T15:20:26.003Z,21.01
2023-03-17T15:22:56.360Z,20.98
2023-03-17T15:25:33.264Z,21.05
2023-03-17T15:28:00.780Z,20.62
2023-03-17T15:30:37.467Z,20.16
2023-03-17T15:33:30.691Z,20.51
2023-03-17T15:36:00.475Z,20.19
2023-03-17T15:38:28.237Z,19.93
2023-03-17T15:40:56.179Z,20.05
2023-03-17T15:43:23.774Z,19.54
2023-03-17T15:45:54.525Z,19.41
2023-03-17T15:48:25.800Z,19.42
2023-03-17T15:50:55.485Z,19.61
2023-03-17T15:53:23.050Z,19.54
2023-03-17T15:55:50.661Z,19.04
2023-03-17T15:58:18.990Z,18.76
2023-03-17T16:00:50.216Z,18.21
2023-03-17T16:03:21.316Z,18.42
2023-03-17T16:05:48.896Z,18.56
2023-03-17T16:08:18.294Z,18.70
2023-03-17T16:10:46.515Z,18.27
2023-03-17T16:13:14.162Z,18.17
2023-03-17T16:15:43.100Z,18.03
2023-03-17T16:18:14.020Z,17.98
2023-03-17T16:20:43.087Z,17.94
2023-03-17T16:23:28.113Z,17.84
2023-03-17T16:26:11.750Z,17.84
2023-03-17T16:28:41.726Z,17.75
2023-03-17T16:31:16.351Z,17.74
2023-03-17T16:33:44.025Z,17.85
2023-03-17T16:36:16.079Z,17.82
2023-03-17T16:38:44.103Z,17.72
2023-03-17T16:41:19.563Z,17.51
2023-03-17T16:43:51.226Z,17.36
2023-03-17T16:46:20.057Z,17.37
2023-03-17T16:48:48.696Z,17.27
2023-03-17T16:51:17.005Z,17.21
2023-03-17T16:53:45.002Z,17.17
2023-03-17T16:56:20.314Z,16.89
2023-03-17T16:58:48.879Z,16.78
2023-03-17T17:01:24.276Z,16.91
2023-03-17T17:03:52.229Z,16.93
2023-03-17T17:06:20.612Z,16.77
2023-03-17T17:08:49.054Z,16.75
2023-03-17T17:11:17.710Z,16.77
2023-03-17T17:13:46.436Z,16.66
2023-03-17T17:16:27.152Z,16.43
2023-03-17T17:18:54.931Z,16.66
2023-03-17T17:21:22.787Z,16.45
2023-03-17T17:23:52.831Z,16.32
2023-03-17T17:26:21.409Z,16.35
2023-03-17T17:28:49.216Z,16.15
2023-03-17T17:31:17.012Z,16.04
2023-03-17T17:33:45.318Z,16.04
2023-03-17T17:36:14.845Z,16.02
2023-03-17T17:38:42.912Z,15.95
2023-03-17T17:41:11.285Z,15.92
2023-03-17T17:43:39.078Z,16.08
2023-03-17T17:46:11.100Z,15.92
2023-03-17T17:48:38.793Z,15.88
2023-03-17T17:51:06.591Z,15.72
2023-03-17T17:53:34.202Z,15.71
2023-03-17T17:56:01.773Z,15.54
2023-03-17T17:58:29.455Z,15.58
2023-03-17T18:00:57.875Z,15.54
2023-03-17T18:03:26.729Z,15.41
2023-03-17T18:05:55.244Z,15.38
2023-03-17T18:08:23.914Z,15.33
2023-03-17T18:10:52.361Z,15.28
2023-03-17T18:13:20.372Z,15.32
2023-03-17T18:15:48.017Z,15.37
2023-03-17T18:18:15.618Z,15.31
2023-03-17T18:20:43.207Z,15.28
2023-03-17T18:23:11.387Z,15.56
2023-03-17T18:25:39.056Z,15.84
2023-03-17T18:28:07.196Z,15.87
2023-03-17T18:30:35.475Z,15.85
2023-03-17T18:33:09.476Z,15.70
2023-03-17T18:35:37.856Z,15.54
2023-03-17T18:38:05.872Z,15.45
2023-03-17T18:40:33.944Z,15.02
2023-03-17T18:43:01.844Z,14.84
2023-03-17T18:45:29.524Z,14.63
2023-03-17T18:47:57.163Z,14.59
2023-03-17T18:50:24.804Z,14.83
2023-03-17T18:52:52.545Z,14.64
2023-03-17T18:55:20.557Z,14.50
2023-03-17T18:57:48.218Z,14.35
2023-03-17T19:00:17.628Z,14.40
2023-03-17T19:02:45.838Z,14.32
2023-03-17T19:05:14.434Z,14.24
2023-03-17T19:07:42.487Z,14.27
2023-03-17T19:10:12.385Z,14.25
2023-03-17T19:12:40.687Z,14.04
2023-03-17T19:15:09.076Z,14.04
2023-03-17T19:17:37.186Z,14.25
2023-03-17T19:20:06.297Z,14.21
2023-03-17T19:22:35.080Z,14.16
2023-03-17T19:25:05.058Z,14.13
2023-03-17T19:27:32.701Z,13.97
2023-03-17T19:30:00.378Z,13.93
2023-03-17T19:32:28.056Z,14.00
2023-03-17T19:34:55.794Z,13.90
2023-03-17T19:37:23.414Z,13.80
2023-03-17T19:39:51.237Z,13.64
2023-03-17T19:42:18.975Z,13.56
2023-03-17T19:44:46.534Z,13.45
2023-03-17T19:47:14.138Z,13.29
2023-03-17T19:49:42.195Z,13.45
2023-03-17T19:52:09.863Z,13.39
2023-03-17T19:54:45.979Z,13.51
2023-03-17T19:57:14.197Z,13.61
2023-03-17T19:59:41.789Z,13.25
2023-03-17T20:02:13.337Z,13.37
2023-03-17T20:04:41.100Z,13.16
2023-03-17T20:07:09.413Z,13.03
2023-03-17T20:09:38.107Z,13.18
2023-03-17T20:12:06.012Z,13.14
2023-03-17T20:14:33.693Z,13.16
2023-03-17T20:17:01.289Z,12.93
2023-03-17T20:19:29.391Z,12.95
2023-03-17T20:21:58.694Z,12.91
2023-03-17T20:24:27.317Z,12.82
2023-03-17T20:26:57.437Z,12.88
2023-03-17T20:29:26.074Z,12.66
2023-03-17T20:31:54.447Z,12.55
2023-03-17T20:34:22.997Z,12.66
2023-03-17T20:36:51.582Z,12.68
2023-03-17T20:39:22.037Z,12.55
2023-03-17T20:41:51.056Z,12.59
2023-03-17T20:44:19.130Z,12.60
2023-03-17T20:46:47.786Z,12.66
2023-03-17T20:49:17.098Z,12.64
2023-03-17T20:51:46.452Z,12.60
2023-03-17T20:54:14.270Z,12.63
2023-03-17T20:56:42.064Z,12.53
2023-03-17T20:59:11.487Z,12.49
2023-03-17T21:01:39.246Z,12.70
2023-03-17T21:04:09.277Z,12.43
2023-03-17T21:06:37.638Z,12.29
2023-03-17T21:09:06.144Z,12.32
2023-03-17T21:11:33.675Z,12.32
2023-03-17T21:14:03.497Z,12.23
2023-03-17T21:16:31.286Z,12.20
2023-03-17T21:18:59.591Z,12.18
2023-03-17T21:21:27.974Z,12.19
2023-03-17T21:23:55.978Z,12.18
2023-03-17T21:26:24.849Z,12.20
2023-03-17T21:28:52.810Z,12.14
2023-03-17T21:31:20.532Z,12.11
2023-03-17T21:33:51.367Z,12.06
2023-03-17T21:36:21.049Z,12.07
2023-03-17T21:38:48.597Z,12.07
2023-03-17T21:41:35.992Z,12.09
2023-03-17T21:44:04.362Z,12.04
2023-03-17T21:46:32.782Z,11.97
2023-03-17T21:49:00.581Z,11.99
2023-03-17T21:51:28.802Z,11.95
2023-03-17T21:53:57.862Z,11.86
2023-03-17T21:56:25.659Z,11.86
2023-03-17T21:58:53.261Z,11.75
2023-03-17T22:01:21.955Z,11.83
2023-03-17T22:03:50.246Z,12.03
2023-03-17T22:06:19.277Z,12.21
2023-03-17T22:08:48.208Z,12.35
2023-03-17T22:11:16.933Z,11.95
2023-03-17T22:13:44.756Z,11.60
2023-03-17T22:16:12.843Z,11.77
2023-03-17T22:18:40.821Z,12.07
2023-03-17T22:21:10.319Z,11.81
2023-03-17T22:23:41.691Z,11.41
2023-03-17T22:26:12.509Z,11.85
2023-03-17T22:28:40.893Z,11.78
2023-03-17T22:31:19.262Z,11.49
2023-03-17T22:33:48.464Z,11.32
2023-03-17T22:36:16.230Z,11.33
2023-03-17T22:38:44.034Z,11.33
2023-03-17T22:41:16.319Z,11.41
2023-03-17T22:43:44.202Z,11.18
2023-03-17T22:46:12.124Z,11.06
2023-03-17T22:48:40.468Z,11.11
2023-03-17T22:51:09.783Z,11.07
2023-03-17T22:53:37.918Z,11.24
2023-03-17T22:56:06.377Z,11.16
2023-03-17T22:58:34.257Z,10.98
2023-03-17T23:01:02.749Z,11.01
2023-03-17T23:03:30.370Z,11.09
2023-03-17T23:05:59.777Z,10.96
2023-03-17T23:08:29.547Z,10.88
2023-03-17T23:10:57.823Z,10.89
2023-03-17T23:13:25.519Z,10.73
2023-03-17T23:15:53.100Z,10.83
2023-03-17T23:18:20.614Z,10.63
2023-03-17T23:20:48.960Z,10.71
2023-03-17T23:23:17.614Z,10.72
2023-03-17T23:25:45.174Z,10.62
2023-03-17T23:28:13.038Z,10.76
2023-03-17T23:30:41.782Z,10.59
2023-03-17T23:33:09.398Z,10.48
2023-03-17T23:35:37.170Z,10.42
2023-03-17T23:38:04.813Z,10.25
2023-03-17T23:40:32.791Z,10.32
2023-03-17T23:43:00.650Z,10.47
2023-03-17T23:45:28.412Z,10.51
2023-03-17T23:47:57.640Z,10.51
2023-03-17T23:50:25.147Z,10.41
2023-03-17T23:53:09.890Z,10.29
2023-03-17T23:55:37.865Z,10.06
2023-03-17T23:58:05.375Z,10.12
